Pisinemo, Arizona
Current Conditions -  °F | °C
As of 9:45 AM on Monday 22 Dec 2014 (Local Time) from KRYN Reporting Station
Clear Clear  
Wind Chill: 52°   Ceiling: Unl
Heat Index: 52°   Visibility: 10mi
Dew Point: 45°   Wind: 0mph
Humidity: 76%   Direction: NA
Pressure: 30.05"   Gusts: NA
Location:  32.0925°N, 112.129°W
Report Text: KRYN 221645Z 00000KT 10SM CLR 11/07 A3005
Loading
Personal Weather Stations






























Interactive Weather Map New forecast layout! Learn more

10-Day Weather Forecast

Advertisements
Track Severe Weather on mobile